sensor_id;sensor_type;location;lat;lon;timestamp;temperature;humidity
17437;DHT22;70275;52.198;5.422;2023-05-24T00:00:09;9.90;79.60
17437;DHT22;70275;52.198;5.422;2023-05-24T00:02:40;9.90;79.50
17437;DHT22;70275;52.198;5.422;2023-05-24T00:05:09;9.70;80.20
17437;DHT22;70275;52.198;5.422;2023-05-24T00:07:43;9.70;80.30
17437;DHT22;70275;52.198;5.422;2023-05-24T00:10:12;9.70;80.30
17437;DHT22;70275;52.198;5.422;2023-05-24T00:12:41;9.60;81.40
17437;DHT22;70275;52.198;5.422;2023-05-24T00:15:10;9.80;80.90
17437;DHT22;70275;52.198;5.422;2023-05-24T00:17:39;9.70;80.30
17437;DHT22;70275;52.198;5.422;2023-05-24T00:20:09;9.60;81.00
17437;DHT22;70275;52.198;5.422;2023-05-24T00:22:39;9.60;80.40
17437;DHT22;70275;52.198;5.422;2023-05-24T00:25:11;9.70;81.00
17437;DHT22;70275;52.198;5.422;2023-05-24T00:27:40;9.80;80.10
17437;DHT22;70275;52.198;5.422;2023-05-24T00:30:09;9.80;79.40
17437;DHT22;70275;52.198;5.422;2023-05-24T00:32:39;9.70;79.90
17437;DHT22;70275;52.198;5.422;2023-05-24T00:35:08;9.50;80.70
17437;DHT22;70275;52.198;5.422;2023-05-24T00:37:37;9.60;80.50
17437;DHT22;70275;52.198;5.422;2023-05-24T00:40:12;9.60;80.20
17437;DHT22;70275;52.198;5.422;2023-05-24T00:42:41;9.60;81.10
17437;DHT22;70275;52.198;5.422;2023-05-24T00:45:10;9.40;80.90
17437;DHT22;70275;52.198;5.422;2023-05-24T00:47:39;9.40;81.20
17437;DHT22;70275;52.198;5.422;2023-05-24T00:50:10;9.30;81.30
17437;DHT22;70275;52.198;5.422;2023-05-24T00:52:42;9.20;81.90
17437;DHT22;70275;52.198;5.422;2023-05-24T00:55:14;9.60;81.40
17437;DHT22;70275;52.198;5.422;2023-05-24T00:57:43;9.60;81.20
17437;DHT22;70275;52.198;5.422;2023-05-24T01:00:13;9.40;81.20
17437;DHT22;70275;52.198;5.422;2023-05-24T01:02:42;9.20;82.20
17437;DHT22;70275;52.198;5.422;2023-05-24T01:05:12;9.10;82.40
17437;DHT22;70275;52.198;5.422;2023-05-24T01:07:49;9.10;82.40
17437;DHT22;70275;52.198;5.422;2023-05-24T01:10:41;9.00;82.60
17437;DHT22;70275;52.198;5.422;2023-05-24T01:13:23;9.10;82.60
17437;DHT22;70275;52.198;5.422;2023-05-24T01:16:00;9.00;82.70
17437;DHT22;70275;52.198;5.422;2023-05-24T01:18:39;9.00;82.90
17437;DHT22;70275;52.198;5.422;2023-05-24T01:21:18;9.00;82.90
17437;DHT22;70275;52.198;5.422;2023-05-24T01:24:03;8.90;83.10
17437;DHT22;70275;52.198;5.422;2023-05-24T01:27:05;8.70;83.10
17437;DHT22;70275;52.198;5.422;2023-05-24T01:29:35;8.80;83.10
17437;DHT22;70275;52.198;5.422;2023-05-24T01:32:06;8.80;83.10
17437;DHT22;70275;52.198;5.422;2023-05-24T01:34:36;8.60;83.10
17437;DHT22;70275;52.198;5.422;2023-05-24T01:37:05;8.60;83.10
17437;DHT22;70275;52.198;5.422;2023-05-24T01:39:34;8.60;83.10
17437;DHT22;70275;52.198;5.422;2023-05-24T01:42:10;8.60;83.10
17437;DHT22;70275;52.198;5.422;2023-05-24T01:44:56;8.50;83.10
17437;DHT22;70275;52.198;5.422;2023-05-24T01:47:41;8.40;83.10
17437;DHT22;70275;52.198;5.422;2023-05-24T01:50:19;8.30;83.10
17437;DHT22;70275;52.198;5.422;2023-05-24T01:52:54;8.20;83.10
17437;DHT22;70275;52.198;5.422;2023-05-24T01:55:30;8.20;83.10
17437;DHT22;70275;52.198;5.422;2023-05-24T01:58:05;8.10;83.10
17437;DHT22;70275;52.198;5.422;2023-05-24T02:00:38;8.10;83.10
17437;DHT22;70275;52.198;5.422;2023-05-24T02:03:08;8.00;83.10
17437;DHT22;70275;52.198;5.422;2023-05-24T02:05:38;8.10;83.10
17437;DHT22;70275;52.198;5.422;2023-05-24T02:08:09;8.10;83.10
17437;DHT22;70275;52.198;5.422;2023-05-24T02:10:38;8.10;83.10
17437;DHT22;70275;52.198;5.422;2023-05-24T02:13:10;8.20;83.10
17437;DHT22;70275;52.198;5.422;2023-05-24T02:15:40;8.30;83.10
17437;DHT22;70275;52.198;5.422;2023-05-24T02:18:09;8.20;83.10
17437;DHT22;70275;52.198;5.422;2023-05-24T02:20:39;8.10;83.10
17437;DHT22;70275;52.198;5.422;2023-05-24T02:23:08;8.10;83.10
17437;DHT22;70275;52.198;5.422;2023-05-24T02:25:37;8.10;83.10
17437;DHT22;70275;52.198;5.422;2023-05-24T02:28:06;8.10;83.10
17437;DHT22;70275;52.198;5.422;2023-05-24T02:30:37;8.10;83.10
17437;DHT22;70275;52.198;5.422;2023-05-24T02:33:09;8.10;83.10
17437;DHT22;70275;52.198;5.422;2023-05-24T02:35:38;8.20;83.10
17437;DHT22;70275;52.198;5.422;2023-05-24T02:38:08;8.20;83.10
17437;DHT22;70275;52.198;5.422;2023-05-24T02:40:37;8.20;83.10
17437;DHT22;70275;52.198;5.422;2023-05-24T02:43:08;8.10;83.10
17437;DHT22;70275;52.198;5.422;2023-05-24T02:45:37;8.20;83.10
17437;DHT22;70275;52.198;5.422;2023-05-24T02:48:06;8.20;83.10
17437;DHT22;70275;52.198;5.422;2023-05-24T02:50:35;8.20;83.10
17437;DHT22;70275;52.198;5.422;2023-05-24T02:53:04;8.20;83.10
17437;DHT22;70275;52.198;5.422;2023-05-24T02:55:34;8.20;83.10
17437;DHT22;70275;52.198;5.422;2023-05-24T02:58:03;8.20;83.10
17437;DHT22;70275;52.198;5.422;2023-05-24T03:00:35;8.30;83.10
17437;DHT22;70275;52.198;5.422;2023-05-24T03:03:04;8.30;83.10
17437;DHT22;70275;52.198;5.422;2023-05-24T03:05:33;8.30;83.10
17437;DHT22;70275;52.198;5.422;2023-05-24T03:08:02;8.30;83.10
17437;DHT22;70275;52.198;5.422;2023-05-24T03:10:31;8.40;83.10
17437;DHT22;70275;52.198;5.422;2023-05-24T03:13:00;8.40;83.10
17437;DHT22;70275;52.198;5.422;2023-05-24T03:15:29;8.50;83.10
17437;DHT22;70275;52.198;5.422;2023-05-24T03:18:00;8.50;83.10
17437;DHT22;70275;52.198;5.422;2023-05-24T03:20:29;8.50;83.10
17437;DHT22;70275;52.198;5.422;2023-05-24T03:22:58;8.60;83.10
17437;DHT22;70275;52.198;5.422;2023-05-24T03:25:27;8.60;83.10
17437;DHT22;70275;52.198;5.422;2023-05-24T03:27:56;8.70;83.10
17437;DHT22;70275;52.198;5.422;2023-05-24T03:30:27;8.80;83.10
17437;DHT22;70275;52.198;5.422;2023-05-24T03:32:56;8.90;83.10
17437;DHT22;70275;52.198;5.422;2023-05-24T03:35:27;9.00;83.10
17437;DHT22;70275;52.198;5.422;2023-05-24T03:37:56;9.10;83.10
17437;DHT22;70275;52.198;5.422;2023-05-24T03:40:25;9.10;83.10
17437;DHT22;70275;52.198;5.422;2023-05-24T03:42:57;9.10;83.10
17437;DHT22;70275;52.198;5.422;2023-05-24T03:45:25;9.10;83.10
17437;DHT22;70275;52.198;5.422;2023-05-24T03:47:54;9.10;83.10
17437;DHT22;70275;52.198;5.422;2023-05-24T03:50:23;9.20;83.10
17437;DHT22;70275;52.198;5.422;2023-05-24T03:52:55;9.30;83.10
17437;DHT22;70275;52.198;5.422;2023-05-24T03:55:24;9.30;83.10
17437;DHT22;70275;52.198;5.422;2023-05-24T03:57:52;9.30;83.10
17437;DHT22;70275;52.198;5.422;2023-05-24T04:00:22;9.30;83.10
17437;DHT22;70275;52.198;5.422;2023-05-24T04:02:50;9.30;83.10
17437;DHT22;70275;52.198;5.422;2023-05-24T04:05:20;9.20;83.10
17437;DHT22;70275;52.198;5.422;2023-05-24T04:07:54;9.20;83.10
17437;DHT22;70275;52.198;5.422;2023-05-24T04:10:23;9.20;83.10
17437;DHT22;70275;52.198;5.422;2023-05-24T04:12:52;9.30;83.10
17437;DHT22;70275;52.198;5.422;2023-05-24T04:15:21;9.20;83.10
17437;DHT22;70275;52.198;5.422;2023-05-24T04:17:51;9.20;83.10
17437;DHT22;70275;52.198;5.422;2023-05-24T04:20:20;9.30;83.10
17437;DHT22;70275;52.198;5.422;2023-05-24T04:22:54;9.40;83.10
17437;DHT22;70275;52.198;5.422;2023-05-24T04:25:23;9.40;83.10
17437;DHT22;70275;52.198;5.422;2023-05-24T04:27:52;9.40;83.10
17437;DHT22;70275;52.198;5.422;2023-05-24T04:30:21;9.40;83.10
17437;DHT22;70275;52.198;5.422;2023-05-24T04:32:50;9.40;83.10
17437;DHT22;70275;52.198;5.422;2023-05-24T04:35:19;9.50;83.10
17437;DHT22;70275;52.198;5.422;2023-05-24T04:37:48;9.50;83.10
17437;DHT22;70275;52.198;5.422;2023-05-24T04:40:19;9.50;83.10
17437;DHT22;70275;52.198;5.422;2023-05-24T04:42:49;9.60;83.10
17437;DHT22;70275;52.198;5.422;2023-05-24T04:45:18;9.60;83.10
17437;DHT22;70275;52.198;5.422;2023-05-24T04:47:47;9.60;83.10
17437;DHT22;70275;52.198;5.422;2023-05-24T04:50:16;9.70;83.10
17437;DHT22;70275;52.198;5.422;2023-05-24T04:52:45;9.70;83.10
17437;DHT22;70275;52.198;5.422;2023-05-24T04:55:14;9.80;83.10
17437;DHT22;70275;52.198;5.422;2023-05-24T04:57:46;9.80;83.10
17437;DHT22;70275;52.198;5.422;2023-05-24T05:00:15;9.70;83.10
17437;DHT22;70275;52.198;5.422;2023-05-24T05:02:45;9.80;83.10
17437;DHT22;70275;52.198;5.422;2023-05-24T05:05:14;9.90;83.10
17437;DHT22;70275;52.198;5.422;2023-05-24T05:07:44;9.90;83.10
17437;DHT22;70275;52.198;5.422;2023-05-24T05:10:13;10.00;83.10
17437;DHT22;70275;52.198;5.422;2023-05-24T05:12:45;10.00;83.10
17437;DHT22;70275;52.198;5.422;2023-05-24T05:15:14;10.00;83.10
17437;DHT22;70275;52.198;5.422;2023-05-24T05:17:43;10.10;83.10
17437;DHT22;70275;52.198;5.422;2023-05-24T05:20:12;10.10;83.10
17437;DHT22;70275;52.198;5.422;2023-05-24T05:22:45;10.10;83.00
17437;DHT22;70275;52.198;5.422;2023-05-24T05:25:14;10.20;83.10
17437;DHT22;70275;52.198;5.422;2023-05-24T05:27:46;10.40;82.90
17437;DHT22;70275;52.198;5.422;2023-05-24T05:30:15;10.40;83.00
17437;DHT22;70275;52.198;5.422;2023-05-24T05:32:44;10.50;82.70
17437;DHT22;70275;52.198;5.422;2023-05-24T05:35:13;10.60;82.40
17437;DHT22;70275;52.198;5.422;2023-05-24T05:37:41;10.60;82.40
17437;DHT22;70275;52.198;5.422;2023-05-24T05:40:11;10.60;82.30
17437;DHT22;70275;52.198;5.422;2023-05-24T05:42:40;10.70;82.10
17437;DHT22;70275;52.198;5.422;2023-05-24T05:45:12;10.80;82.00
17437;DHT22;70275;52.198;5.422;2023-05-24T05:47:40;10.80;82.40
17437;DHT22;70275;52.198;5.422;2023-05-24T05:50:10;10.90;82.20
17437;DHT22;70275;52.198;5.422;2023-05-24T05:52:39;11.10;81.70
17437;DHT22;70275;52.198;5.422;2023-05-24T05:55:09;11.20;81.70
17437;DHT22;70275;52.198;5.422;2023-05-24T05:57:38;11.30;81.60
17437;DHT22;70275;52.198;5.422;2023-05-24T06:00:12;11.50;80.90
17437;DHT22;70275;52.198;5.422;2023-05-24T06:02:41;11.70;80.00
17437;DHT22;70275;52.198;5.422;2023-05-24T06:05:10;11.80;79.60
17437;DHT22;70275;52.198;5.422;2023-05-24T06:07:39;12.10;79.50
17437;DHT22;70275;52.198;5.422;2023-05-24T06:10:09;12.00;78.80
17437;DHT22;70275;52.198;5.422;2023-05-24T06:12:39;12.20;78.70
17437;DHT22;70275;52.198;5.422;2023-05-24T06:15:11;12.20;78.80
17437;DHT22;70275;52.198;5.422;2023-05-24T06:17:40;12.00;78.50
17437;DHT22;70275;52.198;5.422;2023-05-24T06:20:12;11.80;79.00
17437;DHT22;70275;52.198;5.422;2023-05-24T06:22:41;12.00;79.10
17437;DHT22;70275;52.198;5.422;2023-05-24T06:25:10;11.90;78.90
17437;DHT22;70275;52.198;5.422;2023-05-24T06:27:43;12.10;76.70
17437;DHT22;70275;52.198;5.422;2023-05-24T06:30:15;12.00;77.70
17437;DHT22;70275;52.198;5.422;2023-05-24T06:32:45;11.90;77.40
17437;DHT22;70275;52.198;5.422;2023-05-24T06:35:34;12.20;77.40
17437;DHT22;70275;52.198;5.422;2023-05-24T06:38:03;12.40;76.10
17437;DHT22;70275;52.198;5.422;2023-05-24T06:40:32;12.60;76.10
17437;DHT22;70275;52.198;5.422;2023-05-24T06:43:01;12.50;76.30
17437;DHT22;70275;52.198;5.422;2023-05-24T06:45:34;12.90;75.80
17437;DHT22;70275;52.198;5.422;2023-05-24T06:48:03;12.90;74.90
17437;DHT22;70275;52.198;5.422;2023-05-24T06:50:32;13.10;72.80
17437;DHT22;70275;52.198;5.422;2023-05-24T06:53:02;13.20;72.20
17437;DHT22;70275;52.198;5.422;2023-05-24T06:55:31;13.20;72.60
17437;DHT22;70275;52.198;5.422;2023-05-24T06:58:00;13.10;71.60
17437;DHT22;70275;52.198;5.422;2023-05-24T07:00:30;13.00;72.10
17437;DHT22;70275;52.198;5.422;2023-05-24T07:03:02;12.90;72.20
17437;DHT22;70275;52.198;5.422;2023-05-24T07:05:31;13.00;72.20
17437;DHT22;70275;52.198;5.422;2023-05-24T07:08:00;13.20;71.30
17437;DHT22;70275;52.198;5.422;2023-05-24T07:10:29;13.30;70.90
17437;DHT22;70275;52.198;5.422;2023-05-24T07:12:58;13.10;71.00
17437;DHT22;70275;52.198;5.422;2023-05-24T07:15:28;12.90;72.20
17437;DHT22;70275;52.198;5.422;2023-05-24T07:18:00;12.90;73.00
17437;DHT22;70275;52.198;5.422;2023-05-24T07:20:29;13.20;70.70
17437;DHT22;70275;52.198;5.422;2023-05-24T07:22:58;13.10;71.30
17437;DHT22;70275;52.198;5.422;2023-05-24T07:25:28;13.30;71.40
17437;DHT22;70275;52.198;5.422;2023-05-24T07:27:58;13.30;70.60
17437;DHT22;70275;52.198;5.422;2023-05-24T07:30:27;13.20;71.30
17437;DHT22;70275;52.198;5.422;2023-05-24T07:32:56;13.20;71.20
17437;DHT22;70275;52.198;5.422;2023-05-24T07:35:28;13.30;70.70
17437;DHT22;70275;52.198;5.422;2023-05-24T07:37:57;13.40;70.50
17437;DHT22;70275;52.198;5.422;2023-05-24T07:40:26;13.90;70.10
17437;DHT22;70275;52.198;5.422;2023-05-24T07:42:55;14.40;67.50
17437;DHT22;70275;52.198;5.422;2023-05-24T07:45:24;14.50;66.60
17437;DHT22;70275;52.198;5.422;2023-05-24T07:47:53;14.80;62.60
17437;DHT22;70275;52.198;5.422;2023-05-24T07:50:22;14.60;64.50
17437;DHT22;70275;52.198;5.422;2023-05-24T07:52:55;14.90;63.10
17437;DHT22;70275;52.198;5.422;2023-05-24T07:55:24;15.10;62.90
17437;DHT22;70275;52.198;5.422;2023-05-24T07:57:53;15.20;62.40
17437;DHT22;70275;52.198;5.422;2023-05-24T08:00:22;14.60;65.00
17437;DHT22;70275;52.198;5.422;2023-05-24T08:02:51;14.30;65.20
17437;DHT22;70275;52.198;5.422;2023-05-24T08:05:21;14.20;64.70
17437;DHT22;70275;52.198;5.422;2023-05-24T08:07:50;14.10;64.30
17437;DHT22;70275;52.198;5.422;2023-05-24T08:10:22;14.30;64.50
17437;DHT22;70275;52.198;5.422;2023-05-24T08:12:52;14.30;64.90
17437;DHT22;70275;52.198;5.422;2023-05-24T08:15:21;14.50;64.30
17437;DHT22;70275;52.198;5.422;2023-05-24T08:17:50;14.40;64.30
17437;DHT22;70275;52.198;5.422;2023-05-24T08:20:19;14.30;64.70
17437;DHT22;70275;52.198;5.422;2023-05-24T08:22:49;14.00;65.00
17437;DHT22;70275;52.198;5.422;2023-05-24T08:25:18;14.30;64.90
17437;DHT22;70275;52.198;5.422;2023-05-24T08:27:49;14.30;64.10
17437;DHT22;70275;52.198;5.422;2023-05-24T08:30:19;14.30;63.40
17437;DHT22;70275;52.198;5.422;2023-05-24T08:32:48;14.60;62.60
17437;DHT22;70275;52.198;5.422;2023-05-24T08:35:17;15.30;60.80
17437;DHT22;70275;52.198;5.422;2023-05-24T08:37:45;14.90;61.70
17437;DHT22;70275;52.198;5.422;2023-05-24T08:40:15;14.60;62.80
17437;DHT22;70275;52.198;5.422;2023-05-24T08:42:45;14.70;62.50
17437;DHT22;70275;52.198;5.422;2023-05-24T08:45:18;14.60;61.90
17437;DHT22;70275;52.198;5.422;2023-05-24T08:47:49;14.50;62.20
17437;DHT22;70275;52.198;5.422;2023-05-24T08:50:19;14.30;63.50
17437;DHT22;70275;52.198;5.422;2023-05-24T08:52:50;14.40;63.30
17437;DHT22;70275;52.198;5.422;2023-05-24T08:55:20;15.20;63.10
17437;DHT22;70275;52.198;5.422;2023-05-24T08:57:50;16.00;60.40
17437;DHT22;70275;52.198;5.422;2023-05-24T09:00:22;16.60;57.70
17437;DHT22;70275;52.198;5.422;2023-05-24T09:02:52;16.20;58.00
17437;DHT22;70275;52.198;5.422;2023-05-24T09:05:21;15.60;59.80
17437;DHT22;70275;52.198;5.422;2023-05-24T09:07:54;15.00;60.80
17437;DHT22;70275;52.198;5.422;2023-05-24T09:10:28;15.00;61.80
17437;DHT22;70275;52.198;5.422;2023-05-24T09:13:01;14.90;60.90
17437;DHT22;70275;52.198;5.422;2023-05-24T09:15:35;15.40;56.00
17437;DHT22;70275;52.198;5.422;2023-05-24T09:18:04;16.10;57.10
17437;DHT22;70275;52.198;5.422;2023-05-24T09:20:36;16.60;56.30
17437;DHT22;70275;52.198;5.422;2023-05-24T09:23:05;16.80;55.90
17437;DHT22;70275;52.198;5.422;2023-05-24T09:25:35;16.00;55.80
17437;DHT22;70275;52.198;5.422;2023-05-24T09:28:05;15.30;58.60
17437;DHT22;70275;52.198;5.422;2023-05-24T09:30:38;15.40;58.20
17437;DHT22;70275;52.198;5.422;2023-05-24T09:33:07;16.00;58.50
17437;DHT22;70275;52.198;5.422;2023-05-24T09:35:35;16.10;57.60
17437;DHT22;70275;52.198;5.422;2023-05-24T09:38:05;15.70;58.30
17437;DHT22;70275;52.198;5.422;2023-05-24T09:40:35;15.80;58.10
17437;DHT22;70275;52.198;5.422;2023-05-24T09:43:05;16.30;57.50
17437;DHT22;70275;52.198;5.422;2023-05-24T09:45:43;16.50;55.30
17437;DHT22;70275;52.198;5.422;2023-05-24T09:48:14;16.30;54.40
17437;DHT22;70275;52.198;5.422;2023-05-24T09:50:57;15.80;56.80
17437;DHT22;70275;52.198;5.422;2023-05-24T09:53:28;15.40;58.30
17437;DHT22;70275;52.198;5.422;2023-05-24T09:55:58;15.60;58.80
17437;DHT22;70275;52.198;5.422;2023-05-24T09:58:28;15.30;60.40
17437;DHT22;70275;52.198;5.422;2023-05-24T10:01:09;15.50;58.40
17437;DHT22;70275;52.198;5.422;2023-05-24T10:03:51;15.20;59.10
17437;DHT22;70275;52.198;5.422;2023-05-24T10:06:20;15.70;59.50
17437;DHT22;70275;52.198;5.422;2023-05-24T10:08:50;16.30;56.10
17437;DHT22;70275;52.198;5.422;2023-05-24T10:11:21;16.20;55.90
17437;DHT22;70275;52.198;5.422;2023-05-24T10:13:50;15.80;55.80
17437;DHT22;70275;52.198;5.422;2023-05-24T10:16:23;15.80;56.30
17437;DHT22;70275;52.198;5.422;2023-05-24T10:18:52;16.90;54.60
17437;DHT22;70275;52.198;5.422;2023-05-24T10:21:23;16.60;54.80
17437;DHT22;70275;52.198;5.422;2023-05-24T10:23:56;16.10;54.40
17437;DHT22;70275;52.198;5.422;2023-05-24T10:26:30;16.80;54.50
17437;DHT22;70275;52.198;5.422;2023-05-24T10:29:05;16.40;55.60
17437;DHT22;70275;52.198;5.422;2023-05-24T10:31:41;15.80;55.00
17437;DHT22;70275;52.198;5.422;2023-05-24T10:34:12;15.60;56.60
17437;DHT22;70275;52.198;5.422;2023-05-24T10:36:41;16.70;53.70
17437;DHT22;70275;52.198;5.422;2023-05-24T10:39:12;16.70;53.40
17437;DHT22;70275;52.198;5.422;2023-05-24T10:41:42;15.80;55.90
17437;DHT22;70275;52.198;5.422;2023-05-24T10:44:11;15.50;55.20
17437;DHT22;70275;52.198;5.422;2023-05-24T10:49:49;15.80;54.40
17437;DHT22;70275;52.198;5.422;2023-05-24T10:52:20;16.40;51.40
17437;DHT22;70275;52.198;5.422;2023-05-24T10:55:04;16.40;53.10
17437;DHT22;70275;52.198;5.422;2023-05-24T10:57:35;16.70;52.00
17437;DHT22;70275;52.198;5.422;2023-05-24T11:00:27;16.70;52.20
17437;DHT22;70275;52.198;5.422;2023-05-24T11:03:06;16.70;52.10
17437;DHT22;70275;52.198;5.422;2023-05-24T11:05:49;17.20;51.30
17437;DHT22;70275;52.198;5.422;2023-05-24T11:08:23;17.10;52.50
17437;DHT22;70275;52.198;5.422;2023-05-24T11:11:06;16.90;52.20
17437;DHT22;70275;52.198;5.422;2023-05-24T11:13:37;17.00;52.00
17437;DHT22;70275;52.198;5.422;2023-05-24T11:16:08;17.10;52.10
17437;DHT22;70275;52.198;5.422;2023-05-24T11:18:39;17.30;52.40
17437;DHT22;70275;52.198;5.422;2023-05-24T11:21:22;17.20;52.40
17437;DHT22;70275;52.198;5.422;2023-05-24T11:23:52;16.50;54.30
17437;DHT22;70275;52.198;5.422;2023-05-24T11:26:21;16.50;55.40
17437;DHT22;70275;52.198;5.422;2023-05-24T11:28:50;16.80;54.00
17437;DHT22;70275;52.198;5.422;2023-05-24T11:31:26;16.40;55.80
17437;DHT22;70275;52.198;5.422;2023-05-24T11:33:59;16.60;55.80
17437;DHT22;70275;52.198;5.422;2023-05-24T11:36:29;17.30;54.50
17437;DHT22;70275;52.198;5.422;2023-05-24T11:38:58;16.80;53.90
17437;DHT22;70275;52.198;5.422;2023-05-24T11:41:28;17.60;52.70
17437;DHT22;70275;52.198;5.422;2023-05-24T11:43:58;17.70;51.40
17437;DHT22;70275;52.198;5.422;2023-05-24T11:46:27;17.80;51.60
17437;DHT22;70275;52.198;5.422;2023-05-24T11:48:59;18.30;49.80
17437;DHT22;70275;52.198;5.422;2023-05-24T11:51:30;18.70;48.00
17437;DHT22;70275;52.198;5.422;2023-05-24T11:54:02;18.70;50.10
17437;DHT22;70275;52.198;5.422;2023-05-24T11:56:31;18.10;51.70
17437;DHT22;70275;52.198;5.422;2023-05-24T11:59:08;17.30;53.50
17437;DHT22;70275;52.198;5.422;2023-05-24T12:01:43;16.90;54.00
17437;DHT22;70275;52.198;5.422;2023-05-24T12:04:15;17.60;52.50
17437;DHT22;70275;52.198;5.422;2023-05-24T12:06:45;18.50;50.00
17437;DHT22;70275;52.198;5.422;2023-05-24T12:09:14;17.80;51.60
17437;DHT22;70275;52.198;5.422;2023-05-24T12:11:46;16.90;55.00
17437;DHT22;70275;52.198;5.422;2023-05-24T12:14:17;16.60;54.70
17437;DHT22;70275;52.198;5.422;2023-05-24T12:16:48;17.10;54.30
17437;DHT22;70275;52.198;5.422;2023-05-24T12:19:21;17.90;52.40
17437;DHT22;70275;52.198;5.422;2023-05-24T12:21:55;18.10;52.50
17437;DHT22;70275;52.198;5.422;2023-05-24T12:24:25;18.70;50.30
17437;DHT22;70275;52.198;5.422;2023-05-24T12:26:58;18.80;48.70
17437;DHT22;70275;52.198;5.422;2023-05-24T12:29:34;18.60;50.70
17437;DHT22;70275;52.198;5.422;2023-05-24T12:32:05;18.30;51.10
17437;DHT22;70275;52.198;5.422;2023-05-24T12:34:39;18.30;50.50
17437;DHT22;70275;52.198;5.422;2023-05-24T12:37:08;17.80;51.30
17437;DHT22;70275;52.198;5.422;2023-05-24T12:39:38;18.00;51.50
17437;DHT22;70275;52.198;5.422;2023-05-24T12:42:07;18.70;50.20
17437;DHT22;70275;52.198;5.422;2023-05-24T12:44:38;18.40;50.40
17437;DHT22;70275;52.198;5.422;2023-05-24T12:47:09;18.90;49.40
17437;DHT22;70275;52.198;5.422;2023-05-24T12:49:41;19.60;46.90
17437;DHT22;70275;52.198;5.422;2023-05-24T12:52:11;20.00;47.30
17437;DHT22;70275;52.198;5.422;2023-05-24T12:54:40;19.30;47.40
17437;DHT22;70275;52.198;5.422;2023-05-24T12:57:09;19.60;48.30
17437;DHT22;70275;52.198;5.422;2023-05-24T12:59:38;19.00;48.20
17437;DHT22;70275;52.198;5.422;2023-05-24T13:02:07;19.80;47.50
17437;DHT22;70275;52.198;5.422;2023-05-24T13:04:36;19.20;47.20
17437;DHT22;70275;52.198;5.422;2023-05-24T13:07:07;18.40;49.40
17437;DHT22;70275;52.198;5.422;2023-05-24T13:09:36;17.80;52.30
17437;DHT22;70275;52.198;5.422;2023-05-24T13:12:07;18.30;51.20
17437;DHT22;70275;52.198;5.422;2023-05-24T13:14:37;18.30;53.20
17437;DHT22;70275;52.198;5.422;2023-05-24T13:17:06;18.40;52.40
17437;DHT22;70275;52.198;5.422;2023-05-24T13:19:35;19.50;48.50
17437;DHT22;70275;52.198;5.422;2023-05-24T13:22:07;19.20;49.90
17437;DHT22;70275;52.198;5.422;2023-05-24T13:24:36;19.30;48.90
17437;DHT22;70275;52.198;5.422;2023-05-24T13:27:06;18.30;51.50
17437;DHT22;70275;52.198;5.422;2023-05-24T13:29:35;17.90;52.50
17437;DHT22;70275;52.198;5.422;2023-05-24T13:32:05;18.10;52.50
17437;DHT22;70275;52.198;5.422;2023-05-24T13:34:34;18.60;50.90
17437;DHT22;70275;52.198;5.422;2023-05-24T13:37:06;18.90;49.90
17437;DHT22;70275;52.198;5.422;2023-05-24T13:39:36;19.80;47.10
17437;DHT22;70275;52.198;5.422;2023-05-24T13:42:06;18.80;49.70
17437;DHT22;70275;52.198;5.422;2023-05-24T13:44:36;18.70;49.70
17437;DHT22;70275;52.198;5.422;2023-05-24T13:47:05;18.40;51.30
17437;DHT22;70275;52.198;5.422;2023-05-24T13:49:34;19.10;49.70
17437;DHT22;70275;52.198;5.422;2023-05-24T13:52:03;18.40;50.10
17437;DHT22;70275;52.198;5.422;2023-05-24T13:54:35;18.20;51.40
17437;DHT22;70275;52.198;5.422;2023-05-24T13:57:04;18.50;50.70
17437;DHT22;70275;52.198;5.422;2023-05-24T13:59:33;18.90;49.40
17437;DHT22;70275;52.198;5.422;2023-05-24T14:02:02;18.40;51.50
17437;DHT22;70275;52.198;5.422;2023-05-24T14:04:31;19.70;47.80
17437;DHT22;70275;52.198;5.422;2023-05-24T14:07:01;19.40;49.00
17437;DHT22;70275;52.198;5.422;2023-05-24T14:09:35;19.70;46.80
17437;DHT22;70275;52.198;5.422;2023-05-24T14:12:05;19.80;47.40
17437;DHT22;70275;52.198;5.422;2023-05-24T14:14:34;19.10;48.90
17437;DHT22;70275;52.198;5.422;2023-05-24T14:17:03;18.60;50.60
17437;DHT22;70275;52.198;5.422;2023-05-24T14:19:32;18.40;50.30
17437;DHT22;70275;52.198;5.422;2023-05-24T14:22:02;18.20;51.60
17437;DHT22;70275;52.198;5.422;2023-05-24T14:24:31;18.80;49.40
17437;DHT22;70275;52.198;5.422;2023-05-24T14:27:04;18.50;50.20
17437;DHT22;70275;52.198;5.422;2023-05-24T14:29:33;17.60;52.80
17437;DHT22;70275;52.198;5.422;2023-05-24T14:32:02;16.70;56.00
17437;DHT22;70275;52.198;5.422;2023-05-24T14:34:31;16.80;55.90
17437;DHT22;70275;52.198;5.422;2023-05-24T14:37:01;17.20;54.60
17437;DHT22;70275;52.198;5.422;2023-05-24T14:39:31;17.00;54.60
17437;DHT22;70275;52.198;5.422;2023-05-24T14:42:02;17.30;52.70
17437;DHT22;70275;52.198;5.422;2023-05-24T14:44:31;17.20;53.80
17437;DHT22;70275;52.198;5.422;2023-05-24T14:47:00;18.30;52.00
17437;DHT22;70275;52.198;5.422;2023-05-24T14:49:29;18.60;51.10
17437;DHT22;70275;52.198;5.422;2023-05-24T14:51:58;19.60;47.90
17437;DHT22;70275;52.198;5.422;2023-05-24T14:54:27;19.10;49.50
17437;DHT22;70275;52.198;5.422;2023-05-24T14:56:56;18.80;49.50
17437;DHT22;70275;52.198;5.422;2023-05-24T14:59:28;19.10;49.40
17437;DHT22;70275;52.198;5.422;2023-05-24T15:01:57;19.10;49.40
17437;DHT22;70275;52.198;5.422;2023-05-24T15:04:26;18.90;50.00
17437;DHT22;70275;52.198;5.422;2023-05-24T15:06:55;18.60;51.40
17437;DHT22;70275;52.198;5.422;2023-05-24T15:09:24;18.80;50.40
17437;DHT22;70275;52.198;5.422;2023-05-24T15:11:52;20.30;46.30
17437;DHT22;70275;52.198;5.422;2023-05-24T15:14:21;20.20;46.30
17437;DHT22;70275;52.198;5.422;2023-05-24T15:16:53;19.60;47.50
17437;DHT22;70275;52.198;5.422;2023-05-24T15:19:22;20.30;46.20
17437;DHT22;70275;52.198;5.422;2023-05-24T15:21:51;20.80;45.90
17437;DHT22;70275;52.198;5.422;2023-05-24T15:24:20;20.20;47.00
17437;DHT22;70275;52.198;5.422;2023-05-24T15:26:49;19.60;48.00
17437;DHT22;70275;52.198;5.422;2023-05-24T15:29:18;19.50;48.80
17437;DHT22;70275;52.198;5.422;2023-05-24T15:31:47;19.80;46.70
17437;DHT22;70275;52.198;5.422;2023-05-24T15:34:18;20.10;46.60
17437;DHT22;70275;52.198;5.422;2023-05-24T15:36:48;21.10;44.50
17437;DHT22;70275;52.198;5.422;2023-05-24T15:39:18;20.60;43.80
17437;DHT22;70275;52.198;5.422;2023-05-24T15:41:47;21.70;42.80
17437;DHT22;70275;52.198;5.422;2023-05-24T15:44:16;22.20;41.40
17437;DHT22;70275;52.198;5.422;2023-05-24T15:46:46;22.30;42.10
17437;DHT22;70275;52.198;5.422;2023-05-24T15:49:15;21.50;44.00
17437;DHT22;70275;52.198;5.422;2023-05-24T15:51:46;20.40;45.20
17437;DHT22;70275;52.198;5.422;2023-05-24T15:54:15;19.20;48.60
17437;DHT22;70275;52.198;5.422;2023-05-24T15:56:44;20.10;46.50
17437;DHT22;70275;52.198;5.422;2023-05-24T15:59:14;19.40;48.00